Time;durP1;ratioP1;P1;durP2;ratioP2;P2;SDS_P1;SDS_P2;PMS_P1;PMS_P2;Temp;Humidity;BMP_temperature;BMP_pressure;BME280_temperature;BME280_humidity;BME280_pressure;Samples;Min_cycle;Max_cycle;Signal;HPM_P1;HPM_P2
2023/09/20 03:55:19;;;;;;;11.00;6.70;;;;;;;12.91;100.00;100002.06;651637;1304;544987;-76
2023/09/20 04:10:23;;;;;;;12.30;7.30;;;;;;;13.62;100.00;100004.52;664431;1272;139563;-76
2023/09/20 04:25:26;;;;;;;13.20;6.80;;;;;;;13.70;100.00;100012.92;663884;1273;139201;-77
2023/09/20 04:40:30;;;;;;;12.50;6.00;;;;;;;13.73;100.00;100018.13;663916;1275;139389;-77
2023/09/20 04:55:34;;;;;;;15.00;6.90;;;;;;;13.72;100.00;100022.39;663628;1273;140964;-78
2023/09/20 05:10:37;;;;;;;21.70;8.20;;;;;;;13.92;100.00;100024.52;664048;1279;140766;-78
2023/09/20 05:25:43;;;;;;;31.70;12.10;;;;;;;14.06;100.00;100026.02;663648;1272;138827;-78
2023/09/20 05:40:47;;;;;;;24.40;12.50;;;;;;;14.35;100.00;100033.82;664522;1274;140750;-79
2023/09/20 05:55:54;;;;;;;18.20;8.10;;;;;;;14.93;99.97;100046.77;664955;1272;139577;-78
2023/09/20 06:11:03;;;;;;;11.80;6.70;;;;;;;15.90;98.69;100044.83;665895;1272;139998;-78
2023/09/20 06:26:12;;;;;;;10.60;5.30;;;;;;;20.33;80.86;100054.83;664837;1272;138758;-77
2023/09/20 06:41:15;;;;;;;;;;;;;;;22.61;68.99;100057.08;663710;1275;138336;-77
2023/09/20 06:56:19;;;;;;;10.00;5.30;;;;;;;23.57;62.98;100063.98;665698;1272;126553;-78
2023/09/20 07:11:23;;;;;;;10.50;5.70;;;;;;;24.17;61.17;100068.14;666259;1269;139639;-77
2023/09/20 07:26:26;;;;;;;11.90;4.50;;;;;;;23.94;59.73;100083.98;664289;1272;141259;-76
2023/09/20 07:41:30;;;;;;;12.00;5.10;;;;;;;23.82;60.12;100078.38;664244;1273;139498;-79
2023/09/20 07:56:34;;;;;;;9.80;4.30;;;;;;;24.86;59.60;100080.45;668050;1273;138170;-77
2023/09/20 08:11:37;;;;;;;7.90;3.50;;;;;;;24.13;58.64;100081.09;663543;1272;139097;-77
2023/09/20 09:12:50;;;;;;;7.70;3.30;;;;;;;23.88;58.87;100069.98;668085;1274;138001;-77
2023/09/20 09:27:53;;;;;;;9.40;3.50;;;;;;;24.16;59.36;100074.48;664594;1285;137748;-77
2023/09/20 09:43:15;;;;;;;15.70;3.70;;;;;;;24.87;57.36;100072.73;663799;1272;137889;-77
2023/09/20 09:58:19;;;;;;;8.00;3.00;;;;;;;25.38;57.12;100071.83;663763;1276;138294;-77
2023/09/20 10:13:22;;;;;;;10.00;3.80;;;;;;;25.04;57.08;100066.89;663701;1275;138471;-78
2023/09/20 10:28:31;;;;;;;5.30;2.00;;;;;;;25.85;56.44;100069.05;663883;1274;139881;-77
2023/09/20 10:43:35;;;;;;;9.40;4.20;;;;;;;25.49;56.47;100070.09;662781;1276;138575;-77
2023/09/20 10:58:42;;;;;;;5.80;3.00;;;;;;;25.23;57.23;100067.73;663642;1270;139361;-79
2023/09/20 11:13:49;;;;;;;11.90;3.30;;;;;;;25.11;56.17;100058.61;663800;1275;137678;-78
2023/09/20 11:28:52;;;;;;;6.40;3.00;;;;;;;24.91;56.63;100057.83;664237;1288;138257;-77
2023/09/20 11:43:56;;;;;;;13.60;2.60;;;;;;;24.46;58.05;100051.02;663548;1273;139400;-77
2023/09/20 11:59:10;;;;;;;12.10;4.60;;;;;;;24.40;59.10;100052.86;664316;1284;138379;-78
2023/09/20 12:14:14;;;;;;;6.90;2.90;;;;;;;25.29;57.65;100049.05;666059;1272;138419;-77
2023/09/20 12:29:17;;;;;;;7.20;3.00;;;;;;;25.69;56.49;100034.66;664815;1280;137692;-77
2023/09/20 12:44:22;;;;;;;5.70;2.70;;;;;;;25.86;56.25;100025.49;664219;1276;138732;-77
2023/09/20 12:59:27;;;;;;;6.30;2.20;;;;;;;25.96;56.62;100015.41;663349;1285;138333;-77
2023/09/20 13:14:30;;;;;;;6.80;2.30;;;;;;;25.92;56.88;100013.02;663890;1275;138431;-76
2023/09/20 13:29:34;;;;;;;7.30;2.10;;;;;;;25.87;56.81;100003.54;663734;1273;138705;-78
2023/09/20 13:44:38;;;;;;;4.90;2.10;;;;;;;25.83;56.95;100005.84;666353;1273;138415;-77
2023/09/20 13:59:47;;;;;;;2.90;1.60;;;;;;;25.96;57.73;100009.55;666996;1273;138139;-78
2023/09/20 14:14:51;;;;;;;3.50;1.90;;;;;;;26.03;57.73;100006.17;665697;1277;139453;-78
2023/09/20 14:29:55;;;;;;;5.30;2.20;;;;;;;25.37;59.03;99997.65;668989;1278;139188;-78
2023/09/20 14:44:58;;;;;;;7.80;2.90;;;;;;;25.49;59.46;99993.91;673091;1259;139893;-77
2023/09/20 15:00:06;;;;;;;4.20;1.60;;;;;;;25.20;60.30;99995.52;672989;1259;138133;-77
2023/09/20 15:15:13;;;;;;;7.20;2.10;;;;;;;25.55;60.44;99996.45;668875;1262;139044;-78
2023/09/20 15:30:16;;;;;;;6.40;3.10;;;;;;;25.38;60.43;100007.36;669424;1263;139431;-78
2023/09/20 15:52:24;;;;;;;11.20;4.10;;;;;;;24.84;62.18;100020.48;651030;1303;545593;-78
2023/09/20 16:07:28;;;;;;;10.10;4.00;;;;;;;24.52;62.64;100026.92;667611;1282;137867;-77
2023/09/20 16:22:31;;;;;;;11.30;5.80;;;;;;;24.11;63.86;100016.39;663399;1274;139440;-77
2023/09/20 16:37:36;;;;;;;7.40;2.80;;;;;;;23.37;65.92;100014.48;668179;1274;138214;-79
2023/09/20 16:52:40;;;;;;;5.10;3.00;;;;;;;22.70;67.60;100023.10;665638;1280;137437;-77
2023/09/20 17:07:45;;;;;;;7.10;3.60;;;;;;;21.98;69.29;100026.76;663025;1273;138283;-78
2023/09/20 17:22:49;;;;;;;7.10;2.80;;;;;;;21.51;71.49;100034.50;663800;1272;138098;-77
2023/09/20 17:37:52;;;;;;;10.10;7.10;;;;;;;20.98;73.12;100040.77;665484;1275;137782;-78
2023/09/20 17:52:56;;;;;;;17.90;10.10;;;;;;;20.66;74.87;100042.15;667050;1268;138326;-77
2023/09/20 18:08:01;;;;;;;35.30;19.20;;;;;;;20.18;77.73;100057.64;670130;1269;139111;-77
2023/09/20 18:23:07;;;;;;;35.60;21.00;;;;;;;19.69;80.52;100064.55;671026;1264;138596;-78
2023/09/20 18:38:13;;;;;;;58.60;28.50;;;;;;;19.00;84.00;100073.23;666603;1269;139575;-77
2023/09/20 18:53:17;;;;;;;22.90;12.60;;;;;;;18.66;85.51;100076.84;670353;1267;140063;-78
2023/09/20 19:08:21;;;;;;;72.00;45.50;;;;;;;18.40;87.76;100077.25;670496;1270;139983;-76
2023/09/20 19:23:25;;;;;;;50.80;29.80;;;;;;;18.01;89.12;100075.02;671350;1266;139934;-77
2023/09/20 19:38:33;;;;;;;35.70;20.00;;;;;;;17.74;90.56;100079.73;675282;1268;140481;-79
2023/09/20 19:53:38;;;;;;;41.50;21.30;;;;;;;17.57;91.48;100081.86;672077;1262;141150;-78
2023/09/20 20:08:41;;;;;;;34.80;19.10;;;;;;;17.36;92.50;100098.09;671010;1266;140277;-78
2023/09/20 20:23:45;;;;;;;20.50;11.90;;;;;;;17.26;92.73;100097.35;670104;1279;139165;-76
2023/09/20 20:38:48;;;;;;;14.40;7.40;;;;;;;17.29;93.16;100080.34;671642;1266;139611;-77
2023/09/20 20:53:53;;;;;;;13.80;7.60;;;;;;;17.34;92.90;100078.20;671120;1266;139752;-77
2023/09/20 21:08:58;;;;;;;20.30;7.70;;;;;;;17.08;93.77;100080.38;671183;1263;139774;-77
2023/09/20 21:24:04;;;;;;;16.50;8.70;;;;;;;16.72;95.46;100080.20;668353;1268;140018;-76
2023/09/20 21:39:07;;;;;;;15.10;7.70;;;;;;;16.55;96.11;100082.67;669601;1267;141089;-78
2023/09/20 21:54:11;;;;;;;20.40;9.50;;;;;;;16.66;96.93;100080.98;670921;1263;138985;-77
2023/09/20 22:09:16;;;;;;;18.80;9.30;;;;;;;16.44;97.18;100079.89;670925;1263;139589;-77
2023/09/20 22:24:21;;;;;;;37.10;15.80;;;;;;;16.18;97.70;100076.92;671864;1266;139500;-77
2023/09/20 22:39:24;;;;;;;40.30;20.70;;;;;;;16.02;98.21;100078.36;672592;1265;139673;-77
2023/09/20 22:54:29;;;;;;;28.00;14.40;;;;;;;15.76;99.34;100081.99;669483;1266;139659;-77
2023/09/20 23:09:36;;;;;;;17.60;8.60;;;;;;;15.59;99.63;100080.10;670992;1266;139748;-77
2023/09/20 23:24:44;;;;;;;15.10;8.30;;;;;;;15.49;99.74;100071.81;671603;1266;139603;-77
2023/09/20 23:39:47;;;;;;;14.80;8.50;;;;;;;15.36;99.95;100067.65;669202;1266;140220;-77
2023/09/20 23:54:50;;;;;;;10.80;7.10;;;;;;;15.29;99.46;100066.55;670671;1266;139591;-77
